sensor_id;sensor_type;location;lat;lon;timestamp;P1;durP1;ratioP1;P2;durP2;ratioP2
73120;SDS011;61307;49.628;-1.624;2023-02-03T00:00:17;3.33;;;1.35;;
73120;SDS011;61307;49.628;-1.624;2023-02-03T00:02:45;1.83;;;1.02;;
73120;SDS011;61307;49.628;-1.624;2023-02-03T00:05:12;3.35;;;1.00;;
73120;SDS011;61307;49.628;-1.624;2023-02-03T00:07:40;3.25;;;1.20;;
73120;SDS011;61307;49.628;-1.624;2023-02-03T00:10:09;3.08;;;1.10;;
73120;SDS011;61307;49.628;-1.624;2023-02-03T00:12:36;3.42;;;1.10;;
73120;SDS011;61307;49.628;-1.624;2023-02-03T00:15:03;3.20;;;1.20;;
73120;SDS011;61307;49.628;-1.624;2023-02-03T00:17:31;3.05;;;1.00;;
73120;SDS011;61307;49.628;-1.624;2023-02-03T00:19:58;5.10;;;1.10;;
73120;SDS011;61307;49.628;-1.624;2023-02-03T00:22:25;4.32;;;1.30;;
73120;SDS011;61307;49.628;-1.624;2023-02-03T00:24:54;2.13;;;1.02;;
73120;SDS011;61307;49.628;-1.624;2023-02-03T00:27:21;2.90;;;0.95;;
73120;SDS011;61307;49.628;-1.624;2023-02-03T00:29:49;3.83;;;1.08;;
73120;SDS011;61307;49.628;-1.624;2023-02-03T00:32:16;4.57;;;1.20;;
73120;SDS011;61307;49.628;-1.624;2023-02-03T00:34:43;3.65;;;1.27;;
73120;SDS011;61307;49.628;-1.624;2023-02-03T00:37:10;3.47;;;0.88;;
73120;SDS011;61307;49.628;-1.624;2023-02-03T00:39:38;3.45;;;1.23;;
73120;SDS011;61307;49.628;-1.624;2023-02-03T00:42:07;3.97;;;1.23;;
73120;SDS011;61307;49.628;-1.624;2023-02-03T00:44:34;2.88;;;1.10;;
73120;SDS011;61307;49.628;-1.624;2023-02-03T00:47:02;4.45;;;1.20;;
73120;SDS011;61307;49.628;-1.624;2023-02-03T00:49:29;4.97;;;1.38;;
73120;SDS011;61307;49.628;-1.624;2023-02-03T00:51:56;2.90;;;1.20;;
73120;SDS011;61307;49.628;-1.624;2023-02-03T00:54:23;5.68;;;1.30;;
73120;SDS011;61307;49.628;-1.624;2023-02-03T00:56:51;3.17;;;1.30;;
73120;SDS011;61307;49.628;-1.624;2023-02-03T00:59:19;4.10;;;1.30;;
73120;SDS011;61307;49.628;-1.624;2023-02-03T01:01:47;1.55;;;0.90;;
73120;SDS011;61307;49.628;-1.624;2023-02-03T01:04:15;3.88;;;1.48;;
73120;SDS011;61307;49.628;-1.624;2023-02-03T01:06:42;3.08;;;1.02;;
73120;SDS011;61307;49.628;-1.624;2023-02-03T01:09:09;3.00;;;0.85;;
73120;SDS011;61307;49.628;-1.624;2023-02-03T01:11:36;4.68;;;1.52;;
73120;SDS011;61307;49.628;-1.624;2023-02-03T01:14:03;3.80;;;1.13;;
73120;SDS011;61307;49.628;-1.624;2023-02-03T01:16:32;3.05;;;0.90;;
73120;SDS011;61307;49.628;-1.624;2023-02-03T01:19:03;3.35;;;1.00;;
73120;SDS011;61307;49.628;-1.624;2023-02-03T01:21:30;4.30;;;1.13;;
73120;SDS011;61307;49.628;-1.624;2023-02-03T01:23:58;3.80;;;1.00;;
73120;SDS011;61307;49.628;-1.624;2023-02-03T01:26:25;3.15;;;1.20;;
73120;SDS011;61307;49.628;-1.624;2023-02-03T01:28:53;2.42;;;1.10;;
73120;SDS011;61307;49.628;-1.624;2023-02-03T01:31:23;4.38;;;1.00;;
73120;SDS011;61307;49.628;-1.624;2023-02-03T01:33:53;5.32;;;1.00;;
73120;SDS011;61307;49.628;-1.624;2023-02-03T01:36:21;2.65;;;1.10;;
73120;SDS011;61307;49.628;-1.624;2023-02-03T01:38:50;2.85;;;1.00;;
73120;SDS011;61307;49.628;-1.624;2023-02-03T01:41:19;3.00;;;1.00;;
73120;SDS011;61307;49.628;-1.624;2023-02-03T01:43:48;4.13;;;1.00;;
73120;SDS011;61307;49.628;-1.624;2023-02-03T01:46:19;4.13;;;1.25;;
73120;SDS011;61307;49.628;-1.624;2023-02-03T01:48:54;4.22;;;1.23;;
73120;SDS011;61307;49.628;-1.624;2023-02-03T01:51:26;3.05;;;1.10;;
73120;SDS011;61307;49.628;-1.624;2023-02-03T01:53:53;1.98;;;0.98;;
73120;SDS011;61307;49.628;-1.624;2023-02-03T01:56:21;3.92;;;1.23;;
73120;SDS011;61307;49.628;-1.624;2023-02-03T01:58:50;3.03;;;0.93;;
73120;SDS011;61307;49.628;-1.624;2023-02-03T02:01:17;2.95;;;0.80;;
73120;SDS011;61307;49.628;-1.624;2023-02-03T02:03:45;4.00;;;1.10;;
73120;SDS011;61307;49.628;-1.624;2023-02-03T02:06:17;1.15;;;0.70;;
73120;SDS011;61307;49.628;-1.624;2023-02-03T02:08:46;3.67;;;1.00;;
73120;SDS011;61307;49.628;-1.624;2023-02-03T02:11:16;2.50;;;0.98;;
73120;SDS011;61307;49.628;-1.624;2023-02-03T02:13:45;3.20;;;1.25;;
73120;SDS011;61307;49.628;-1.624;2023-02-03T02:16:15;4.00;;;1.05;;
73120;SDS011;61307;49.628;-1.624;2023-02-03T02:24:38;1.75;;;1.00;;
73120;SDS011;61307;49.628;-1.624;2023-02-03T02:33:30;2.45;;;0.90;;
73120;SDS011;61307;49.628;-1.624;2023-02-03T02:36:07;3.80;;;0.90;;
73120;SDS011;61307;49.628;-1.624;2023-02-03T02:38:44;3.47;;;1.25;;
73120;SDS011;61307;49.628;-1.624;2023-02-03T02:41:18;2.25;;;0.95;;
73120;SDS011;61307;49.628;-1.624;2023-02-03T02:43:50;3.67;;;1.13;;
73120;SDS011;61307;49.628;-1.624;2023-02-03T02:46:24;3.85;;;0.90;;
73120;SDS011;61307;49.628;-1.624;2023-02-03T02:48:58;4.60;;;1.48;;
73120;SDS011;61307;49.628;-1.624;2023-02-03T02:51:30;2.35;;;0.90;;
73120;SDS011;61307;49.628;-1.624;2023-02-03T02:53:59;3.13;;;0.90;;
73120;SDS011;61307;49.628;-1.624;2023-02-03T02:56:29;1.60;;;0.82;;
73120;SDS011;61307;49.628;-1.624;2023-02-03T02:58:58;3.50;;;0.95;;
73120;SDS011;61307;49.628;-1.624;2023-02-03T03:01:28;2.65;;;1.02;;
73120;SDS011;61307;49.628;-1.624;2023-02-03T03:03:55;1.67;;;0.70;;
73120;SDS011;61307;49.628;-1.624;2023-02-03T03:06:26;3.53;;;0.93;;
73120;SDS011;61307;49.628;-1.624;2023-02-03T03:08:57;3.00;;;0.93;;
73120;SDS011;61307;49.628;-1.624;2023-02-03T03:11:30;2.17;;;1.00;;
73120;SDS011;61307;49.628;-1.624;2023-02-03T03:14:00;2.30;;;0.90;;
73120;SDS011;61307;49.628;-1.624;2023-02-03T03:16:31;1.65;;;0.90;;
73120;SDS011;61307;49.628;-1.624;2023-02-03T03:19:03;1.58;;;0.73;;
73120;SDS011;61307;49.628;-1.624;2023-02-03T03:21:37;1.90;;;0.90;;
73120;SDS011;61307;49.628;-1.624;2023-02-03T03:24:09;4.00;;;1.20;;
73120;SDS011;61307;49.628;-1.624;2023-02-03T03:26:40;2.38;;;0.90;;
73120;SDS011;61307;49.628;-1.624;2023-02-03T03:29:12;4.95;;;1.00;;
73120;SDS011;61307;49.628;-1.624;2023-02-03T03:31:44;2.17;;;0.90;;
73120;SDS011;61307;49.628;-1.624;2023-02-03T03:34:13;3.33;;;1.13;;
73120;SDS011;61307;49.628;-1.624;2023-02-03T03:36:43;2.70;;;0.95;;
73120;SDS011;61307;49.628;-1.624;2023-02-03T03:39:14;1.38;;;0.80;;
73120;SDS011;61307;49.628;-1.624;2023-02-03T03:41:51;1.02;;;0.63;;
73120;SDS011;61307;49.628;-1.624;2023-02-03T03:44:24;1.52;;;0.80;;
73120;SDS011;61307;49.628;-1.624;2023-02-03T03:46:58;5.60;;;1.20;;
73120;SDS011;61307;49.628;-1.624;2023-02-03T03:49:33;1.77;;;0.90;;
73120;SDS011;61307;49.628;-1.624;2023-02-03T03:52:05;2.17;;;0.77;;
73120;SDS011;61307;49.628;-1.624;2023-02-03T03:54:35;2.17;;;0.80;;
73120;SDS011;61307;49.628;-1.624;2023-02-03T03:57:05;4.22;;;1.08;;
73120;SDS011;61307;49.628;-1.624;2023-02-03T03:59:39;2.05;;;0.90;;
73120;SDS011;61307;49.628;-1.624;2023-02-03T04:02:11;1.35;;;0.70;;
73120;SDS011;61307;49.628;-1.624;2023-02-03T04:04:41;2.92;;;0.80;;
73120;SDS011;61307;49.628;-1.624;2023-02-03T04:07:11;3.47;;;0.85;;
73120;SDS011;61307;49.628;-1.624;2023-02-03T04:09:39;1.25;;;0.70;;
73120;SDS011;61307;49.628;-1.624;2023-02-03T04:12:08;1.60;;;0.70;;
73120;SDS011;61307;49.628;-1.624;2023-02-03T04:14:42;2.97;;;0.90;;
73120;SDS011;61307;49.628;-1.624;2023-02-03T04:17:09;1.70;;;0.80;;
73120;SDS011;61307;49.628;-1.624;2023-02-03T04:19:36;1.75;;;0.90;;
73120;SDS011;61307;49.628;-1.624;2023-02-03T04:22:05;2.08;;;0.77;;
73120;SDS011;61307;49.628;-1.624;2023-02-03T04:24:32;2.97;;;0.75;;
73120;SDS011;61307;49.628;-1.624;2023-02-03T04:26:59;3.72;;;1.00;;
73120;SDS011;61307;49.628;-1.624;2023-02-03T04:29:26;4.90;;;0.90;;
73120;SDS011;61307;49.628;-1.624;2023-02-03T04:31:53;3.85;;;0.80;;
73120;SDS011;61307;49.628;-1.624;2023-02-03T04:34:20;2.22;;;0.80;;
73120;SDS011;61307;49.628;-1.624;2023-02-03T04:36:47;3.05;;;0.98;;
73120;SDS011;61307;49.628;-1.624;2023-02-03T04:39:16;3.15;;;1.00;;
73120;SDS011;61307;49.628;-1.624;2023-02-03T04:41:43;2.72;;;0.80;;
73120;SDS011;61307;49.628;-1.624;2023-02-03T04:44:10;3.38;;;1.10;;
73120;SDS011;61307;49.628;-1.624;2023-02-03T04:46:37;1.75;;;0.90;;
73120;SDS011;61307;49.628;-1.624;2023-02-03T04:49:04;1.60;;;0.77;;
73120;SDS011;61307;49.628;-1.624;2023-02-03T04:51:31;1.88;;;1.00;;
73120;SDS011;61307;49.628;-1.624;2023-02-03T04:53:58;2.03;;;1.00;;
73120;SDS011;61307;49.628;-1.624;2023-02-03T04:56:27;2.53;;;0.80;;
73120;SDS011;61307;49.628;-1.624;2023-02-03T04:58:54;1.42;;;0.80;;
73120;SDS011;61307;49.628;-1.624;2023-02-03T05:01:21;3.33;;;1.02;;
73120;SDS011;61307;49.628;-1.624;2023-02-03T05:03:48;2.30;;;0.82;;
73120;SDS011;61307;49.628;-1.624;2023-02-03T05:06:15;2.17;;;0.80;;
73120;SDS011;61307;49.628;-1.624;2023-02-03T05:08:43;2.00;;;0.82;;
73120;SDS011;61307;49.628;-1.624;2023-02-03T05:11:10;1.45;;;0.75;;
73120;SDS011;61307;49.628;-1.624;2023-02-03T05:13:38;3.22;;;0.93;;
73120;SDS011;61307;49.628;-1.624;2023-02-03T05:16:05;2.58;;;1.00;;
73120;SDS011;61307;49.628;-1.624;2023-02-03T05:18:33;1.70;;;0.90;;
73120;SDS011;61307;49.628;-1.624;2023-02-03T05:21:00;1.88;;;1.00;;
73120;SDS011;61307;49.628;-1.624;2023-02-03T05:23:27;1.85;;;0.82;;
73120;SDS011;61307;49.628;-1.624;2023-02-03T05:25:54;3.20;;;1.35;;
73120;SDS011;61307;49.628;-1.624;2023-02-03T05:28:21;1.90;;;0.93;;
73120;SDS011;61307;49.628;-1.624;2023-02-03T05:30:49;3.55;;;0.90;;
73120;SDS011;61307;49.628;-1.624;2023-02-03T05:33:17;1.73;;;0.75;;
73120;SDS011;61307;49.628;-1.624;2023-02-03T05:35:44;1.20;;;0.82;;
73120;SDS011;61307;49.628;-1.624;2023-02-03T05:38:11;2.70;;;1.00;;
73120;SDS011;61307;49.628;-1.624;2023-02-03T05:40:38;3.55;;;0.95;;
73120;SDS011;61307;49.628;-1.624;2023-02-03T05:43:22;2.28;;;0.80;;
73120;SDS011;61307;49.628;-1.624;2023-02-03T05:45:51;1.65;;;0.82;;
73120;SDS011;61307;49.628;-1.624;2023-02-03T05:48:18;2.53;;;0.90;;
73120;SDS011;61307;49.628;-1.624;2023-02-03T05:50:45;3.17;;;0.98;;
73120;SDS011;61307;49.628;-1.624;2023-02-03T05:53:12;2.55;;;0.70;;
73120;SDS011;61307;49.628;-1.624;2023-02-03T05:55:39;1.65;;;0.93;;
73120;SDS011;61307;49.628;-1.624;2023-02-03T05:58:07;1.98;;;0.80;;
73120;SDS011;61307;49.628;-1.624;2023-02-03T06:00:34;1.77;;;0.82;;
73120;SDS011;61307;49.628;-1.624;2023-02-03T06:03:03;2.63;;;1.13;;
73120;SDS011;61307;49.628;-1.624;2023-02-03T06:05:31;3.10;;;1.13;;
73120;SDS011;61307;49.628;-1.624;2023-02-03T06:08:00;2.35;;;0.70;;
73120;SDS011;61307;49.628;-1.624;2023-02-03T06:10:27;1.23;;;0.80;;
73120;SDS011;61307;49.628;-1.624;2023-02-03T06:12:54;1.05;;;0.60;;
73120;SDS011;61307;49.628;-1.624;2023-02-03T06:15:21;3.15;;;1.08;;
73120;SDS011;61307;49.628;-1.624;2023-02-03T06:17:48;1.45;;;0.75;;
73120;SDS011;61307;49.628;-1.624;2023-02-03T06:20:17;1.58;;;0.82;;
73120;SDS011;61307;49.628;-1.624;2023-02-03T06:22:45;2.85;;;0.90;;
73120;SDS011;61307;49.628;-1.624;2023-02-03T06:25:12;1.95;;;0.90;;
73120;SDS011;61307;49.628;-1.624;2023-02-03T06:27:39;1.10;;;0.80;;
73120;SDS011;61307;49.628;-1.624;2023-02-03T06:30:07;3.35;;;0.93;;
73120;SDS011;61307;49.628;-1.624;2023-02-03T06:32:35;1.85;;;0.70;;
73120;SDS011;61307;49.628;-1.624;2023-02-03T06:35:02;2.10;;;0.80;;
73120;SDS011;61307;49.628;-1.624;2023-02-03T06:37:31;2.30;;;0.80;;
73120;SDS011;61307;49.628;-1.624;2023-02-03T06:39:59;2.47;;;1.00;;
73120;SDS011;61307;49.628;-1.624;2023-02-03T06:42:27;3.10;;;0.90;;
73120;SDS011;61307;49.628;-1.624;2023-02-03T06:44:54;1.98;;;0.80;;
73120;SDS011;61307;49.628;-1.624;2023-02-03T06:47:21;3.90;;;0.68;;
73120;SDS011;61307;49.628;-1.624;2023-02-03T06:49:48;5.05;;;0.98;;
73120;SDS011;61307;49.628;-1.624;2023-02-03T06:52:16;2.15;;;0.98;;
73120;SDS011;61307;49.628;-1.624;2023-02-03T06:54:44;2.83;;;1.00;;
73120;SDS011;61307;49.628;-1.624;2023-02-03T06:57:12;2.80;;;0.93;;
73120;SDS011;61307;49.628;-1.624;2023-02-03T06:59:39;1.52;;;0.88;;
73120;SDS011;61307;49.628;-1.624;2023-02-03T07:02:06;2.53;;;1.02;;
73120;SDS011;61307;49.628;-1.624;2023-02-03T07:04:35;1.95;;;0.88;;
73120;SDS011;61307;49.628;-1.624;2023-02-03T07:07:02;1.20;;;0.88;;
73120;SDS011;61307;49.628;-1.624;2023-02-03T07:09:30;2.88;;;1.00;;
73120;SDS011;61307;49.628;-1.624;2023-02-03T07:11:59;2.33;;;0.90;;
73120;SDS011;61307;49.628;-1.624;2023-02-03T07:14:26;1.70;;;0.77;;
73120;SDS011;61307;49.628;-1.624;2023-02-03T07:16:55;2.28;;;0.80;;
73120;SDS011;61307;49.628;-1.624;2023-02-03T07:19:22;1.55;;;1.10;;
73120;SDS011;61307;49.628;-1.624;2023-02-03T07:21:49;5.47;;;1.30;;
73120;SDS011;61307;49.628;-1.624;2023-02-03T07:24:16;4.97;;;1.40;;
73120;SDS011;61307;49.628;-1.624;2023-02-03T07:26:43;2.22;;;1.00;;
73120;SDS011;61307;49.628;-1.624;2023-02-03T07:29:13;1.92;;;1.05;;
73120;SDS011;61307;49.628;-1.624;2023-02-03T07:31:40;2.55;;;0.77;;
73120;SDS011;61307;49.628;-1.624;2023-02-03T07:34:07;4.20;;;0.93;;
73120;SDS011;61307;49.628;-1.624;2023-02-03T07:36:34;1.33;;;0.80;;
73120;SDS011;61307;49.628;-1.624;2023-02-03T07:39:02;2.47;;;1.00;;
73120;SDS011;61307;49.628;-1.624;2023-02-03T07:41:29;1.63;;;0.82;;
73120;SDS011;61307;49.628;-1.624;2023-02-03T07:43:56;2.55;;;0.90;;
73120;SDS011;61307;49.628;-1.624;2023-02-03T07:46:26;2.85;;;0.90;;
73120;SDS011;61307;49.628;-1.624;2023-02-03T07:48:53;3.47;;;1.02;;
73120;SDS011;61307;49.628;-1.624;2023-02-03T07:51:20;3.80;;;1.00;;
73120;SDS011;61307;49.628;-1.624;2023-02-03T07:53:47;2.85;;;0.63;;
73120;SDS011;61307;49.628;-1.624;2023-02-03T07:56:14;2.13;;;0.88;;
73120;SDS011;61307;49.628;-1.624;2023-02-03T07:58:41;1.38;;;0.90;;
73120;SDS011;61307;49.628;-1.624;2023-02-03T08:01:09;3.47;;;0.88;;
73120;SDS011;61307;49.628;-1.624;2023-02-03T08:03:39;2.78;;;0.80;;
73120;SDS011;61307;49.628;-1.624;2023-02-03T08:06:06;20.98;;;1.98;;
73120;SDS011;61307;49.628;-1.624;2023-02-03T08:08:34;3.55;;;0.95;;
73120;SDS011;61307;49.628;-1.624;2023-02-03T08:11:01;5.47;;;1.00;;
73120;SDS011;61307;49.628;-1.624;2023-02-03T08:13:29;3.92;;;0.60;;
73120;SDS011;61307;49.628;-1.624;2023-02-03T08:15:56;4.88;;;0.82;;
73120;SDS011;61307;49.628;-1.624;2023-02-03T08:18:23;1.85;;;1.10;;
73120;SDS011;61307;49.628;-1.624;2023-02-03T08:20:52;3.17;;;0.70;;
73120;SDS011;61307;49.628;-1.624;2023-02-03T08:23:19;3.75;;;1.05;;
73120;SDS011;61307;49.628;-1.624;2023-02-03T08:25:49;6.07;;;0.93;;
73120;SDS011;61307;49.628;-1.624;2023-02-03T08:28:16;3.00;;;0.70;;
73120;SDS011;61307;49.628;-1.624;2023-02-03T08:30:47;3.38;;;0.80;;
73120;SDS011;61307;49.628;-1.624;2023-02-03T08:33:14;12.00;;;0.90;;
73120;SDS011;61307;49.628;-1.624;2023-02-03T08:35:43;1.90;;;0.88;;
73120;SDS011;61307;49.628;-1.624;2023-02-03T08:38:14;1.13;;;0.80;;
73120;SDS011;61307;49.628;-1.624;2023-02-03T08:40:41;1.90;;;0.90;;
73120;SDS011;61307;49.628;-1.624;2023-02-03T08:43:09;2.83;;;1.00;;
73120;SDS011;61307;49.628;-1.624;2023-02-03T08:45:37;3.95;;;0.93;;
73120;SDS011;61307;49.628;-1.624;2023-02-03T08:48:05;1.67;;;0.70;;
73120;SDS011;61307;49.628;-1.624;2023-02-03T08:50:32;5.25;;;0.95;;
73120;SDS011;61307;49.628;-1.624;2023-02-03T08:53:00;10.75;;;0.80;;
73120;SDS011;61307;49.628;-1.624;2023-02-03T08:55:28;1.48;;;0.80;;
73120;SDS011;61307;49.628;-1.624;2023-02-03T08:57:55;3.92;;;0.90;;
73120;SDS011;61307;49.628;-1.624;2023-02-03T09:00:22;2.75;;;0.80;;
73120;SDS011;61307;49.628;-1.624;2023-02-03T09:02:50;7.45;;;0.93;;
73120;SDS011;61307;49.628;-1.624;2023-02-03T09:05:17;1.17;;;0.68;;
73120;SDS011;61307;49.628;-1.624;2023-02-03T09:07:44;6.80;;;0.80;;
73120;SDS011;61307;49.628;-1.624;2023-02-03T09:10:11;2.80;;;1.00;;
73120;SDS011;61307;49.628;-1.624;2023-02-03T09:12:40;2.70;;;0.70;;
73120;SDS011;61307;49.628;-1.624;2023-02-03T09:15:07;3.65;;;1.45;;
73120;SDS011;61307;49.628;-1.624;2023-02-03T09:17:35;4.03;;;0.70;;
73120;SDS011;61307;49.628;-1.624;2023-02-03T09:20:02;9.30;;;0.80;;
73120;SDS011;61307;49.628;-1.624;2023-02-03T09:22:30;2.38;;;0.98;;
73120;SDS011;61307;49.628;-1.624;2023-02-03T09:24:57;1.52;;;0.70;;
73120;SDS011;61307;49.628;-1.624;2023-02-03T09:27:25;8.15;;;0.93;;
73120;SDS011;61307;49.628;-1.624;2023-02-03T09:29:54;2.53;;;0.80;;
73120;SDS011;61307;49.628;-1.624;2023-02-03T09:32:22;1.55;;;0.70;;
73120;SDS011;61307;49.628;-1.624;2023-02-03T09:34:49;2.55;;;0.77;;
73120;SDS011;61307;49.628;-1.624;2023-02-03T09:37:17;0.80;;;0.70;;
73120;SDS011;61307;49.628;-1.624;2023-02-03T09:39:44;6.40;;;0.82;;
73120;SDS011;61307;49.628;-1.624;2023-02-03T09:42:23;2.20;;;0.88;;
73120;SDS011;61307;49.628;-1.624;2023-02-03T09:45:03;3.25;;;1.10;;
73120;SDS011;61307;49.628;-1.624;2023-02-03T09:47:37;1.63;;;0.80;;
73120;SDS011;61307;49.628;-1.624;2023-02-03T09:50:10;2.65;;;0.93;;
73120;SDS011;61307;49.628;-1.624;2023-02-03T09:52:40;1.63;;;1.00;;
73120;SDS011;61307;49.628;-1.624;2023-02-03T09:55:23;4.80;;;0.77;;
73120;SDS011;61307;49.628;-1.624;2023-02-03T09:57:54;2.20;;;0.88;;
73120;SDS011;61307;49.628;-1.624;2023-02-03T10:00:29;2.95;;;1.00;;
73120;SDS011;61307;49.628;-1.624;2023-02-03T10:03:02;1.40;;;0.60;;
73120;SDS011;61307;49.628;-1.624;2023-02-03T10:05:43;3.53;;;0.93;;
73120;SDS011;61307;49.628;-1.624;2023-02-03T10:08:21;0.82;;;0.60;;
73120;SDS011;61307;49.628;-1.624;2023-02-03T10:11:00;3.03;;;0.70;;
73120;SDS011;61307;49.628;-1.624;2023-02-03T10:13:43;2.10;;;0.73;;
73120;SDS011;61307;49.628;-1.624;2023-02-03T10:16:23;2.28;;;0.77;;
73120;SDS011;61307;49.628;-1.624;2023-02-03T10:18:59;5.65;;;0.70;;
73120;SDS011;61307;49.628;-1.624;2023-02-03T10:21:31;1.08;;;0.70;;
73120;SDS011;61307;49.628;-1.624;2023-02-03T10:24:01;14.52;;;1.17;;
73120;SDS011;61307;49.628;-1.624;2023-02-03T10:26:31;2.58;;;0.73;;
73120;SDS011;61307;49.628;-1.624;2023-02-03T10:29:01;1.42;;;0.80;;
73120;SDS011;61307;49.628;-1.624;2023-02-03T10:31:35;7.18;;;0.90;;
73120;SDS011;61307;49.628;-1.624;2023-02-03T10:34:07;7.32;;;0.88;;
73120;SDS011;61307;49.628;-1.624;2023-02-03T10:36:40;2.55;;;0.73;;
73120;SDS011;61307;49.628;-1.624;2023-02-03T10:39:16;7.30;;;1.08;;
73120;SDS011;61307;49.628;-1.624;2023-02-03T10:41:49;2.17;;;0.70;;
73120;SDS011;61307;49.628;-1.624;2023-02-03T10:44:16;3.28;;;0.80;;
73120;SDS011;61307;49.628;-1.624;2023-02-03T10:49:54;3.47;;;0.85;;
73120;SDS011;61307;49.628;-1.624;2023-02-03T10:52:23;2.05;;;0.68;;
73120;SDS011;61307;49.628;-1.624;2023-02-03T10:54:53;2.50;;;0.70;;
73120;SDS011;61307;49.628;-1.624;2023-02-03T10:57:23;1.70;;;0.80;;
73120;SDS011;61307;49.628;-1.624;2023-02-03T10:59:53;3.63;;;0.95;;
73120;SDS011;61307;49.628;-1.624;2023-02-03T11:02:31;3.70;;;0.98;;
73120;SDS011;61307;49.628;-1.624;2023-02-03T11:05:09;2.38;;;0.80;;
73120;SDS011;61307;49.628;-1.624;2023-02-03T11:07:44;4.60;;;1.02;;
73120;SDS011;61307;49.628;-1.624;2023-02-03T11:15:50;1.85;;;1.00;;
73120;SDS011;61307;49.628;-1.624;2023-02-03T11:21:12;2.13;;;0.80;;
73120;SDS011;61307;49.628;-1.624;2023-02-03T11:23:43;3.75;;;0.90;;
73120;SDS011;61307;49.628;-1.624;2023-02-03T11:26:20;4.95;;;0.80;;
73120;SDS011;61307;49.628;-1.624;2023-02-03T11:28:49;3.90;;;0.70;;
73120;SDS011;61307;49.628;-1.624;2023-02-03T11:31:20;1.75;;;0.88;;
73120;SDS011;61307;49.628;-1.624;2023-02-03T11:33:51;4.65;;;0.93;;
73120;SDS011;61307;49.628;-1.624;2023-02-03T11:36:26;1.63;;;0.70;;
73120;SDS011;61307;49.628;-1.624;2023-02-03T11:39:08;2.20;;;0.90;;
73120;SDS011;61307;49.628;-1.624;2023-02-03T11:41:37;3.30;;;0.70;;
73120;SDS011;61307;49.628;-1.624;2023-02-03T11:44:14;6.82;;;0.90;;
73120;SDS011;61307;49.628;-1.624;2023-02-03T11:46:43;3.88;;;0.82;;
73120;SDS011;61307;49.628;-1.624;2023-02-03T11:49:22;2.20;;;0.82;;
73120;SDS011;61307;49.628;-1.624;2023-02-03T11:52:20;2.95;;;0.90;;
73120;SDS011;61307;49.628;-1.624;2023-02-03T11:55:09;2.22;;;0.93;;
73120;SDS011;61307;49.628;-1.624;2023-02-03T11:57:48;2.72;;;0.98;;
73120;SDS011;61307;49.628;-1.624;2023-02-03T12:00:28;4.03;;;0.80;;
73120;SDS011;61307;49.628;-1.624;2023-02-03T12:06:13;4.57;;;0.98;;
73120;SDS011;61307;49.628;-1.624;2023-02-03T12:08:55;2.35;;;0.82;;
73120;SDS011;61307;49.628;-1.624;2023-02-03T12:11:34;2.53;;;0.70;;
73120;SDS011;61307;49.628;-1.624;2023-02-03T12:14:16;1.98;;;0.90;;
73120;SDS011;61307;49.628;-1.624;2023-02-03T12:20:14;3.90;;;1.10;;
73120;SDS011;61307;49.628;-1.624;2023-02-03T12:22:59;3.03;;;0.90;;
73120;SDS011;61307;49.628;-1.624;2023-02-03T12:25:34;2.67;;;0.82;;
73120;SDS011;61307;49.628;-1.624;2023-02-03T12:28:13;2.00;;;0.82;;
73120;SDS011;61307;49.628;-1.624;2023-02-03T12:30:53;3.78;;;0.80;;
73120;SDS011;61307;49.628;-1.624;2023-02-03T12:33:25;1.50;;;0.70;;
73120;SDS011;61307;49.628;-1.624;2023-02-03T12:35:55;1.67;;;0.75;;
73120;SDS011;61307;49.628;-1.624;2023-02-03T12:38:27;3.90;;;0.80;;
73120;SDS011;61307;49.628;-1.624;2023-02-03T12:41:03;2.38;;;0.82;;
73120;SDS011;61307;49.628;-1.624;2023-02-03T12:43:37;2.17;;;0.75;;
73120;SDS011;61307;49.628;-1.624;2023-02-03T12:46:09;2.72;;;0.75;;
73120;SDS011;61307;49.628;-1.624;2023-02-03T12:48:44;2.35;;;0.80;;
73120;SDS011;61307;49.628;-1.624;2023-02-03T12:51:18;1.63;;;0.70;;
73120;SDS011;61307;49.628;-1.624;2023-02-03T12:53:55;6.15;;;1.00;;
73120;SDS011;61307;49.628;-1.624;2023-02-03T12:56:30;2.42;;;0.88;;
73120;SDS011;61307;49.628;-1.624;2023-02-03T12:59:04;2.25;;;0.88;;
73120;SDS011;61307;49.628;-1.624;2023-02-03T13:01:40;6.32;;;0.93;;
73120;SDS011;61307;49.628;-1.624;2023-02-03T13:04:14;2.10;;;0.73;;
73120;SDS011;61307;49.628;-1.624;2023-02-03T13:06:51;2.75;;;0.80;;
73120;SDS011;61307;49.628;-1.624;2023-02-03T13:09:26;1.80;;;0.85;;
73120;SDS011;61307;49.628;-1.624;2023-02-03T13:12:00;2.85;;;0.93;;
73120;SDS011;61307;49.628;-1.624;2023-02-03T13:14:34;2.25;;;0.95;;
73120;SDS011;61307;49.628;-1.624;2023-02-03T13:17:05;2.35;;;0.77;;
73120;SDS011;61307;49.628;-1.624;2023-02-03T13:19:39;2.45;;;0.85;;
73120;SDS011;61307;49.628;-1.624;2023-02-03T13:22:12;2.25;;;0.90;;
73120;SDS011;61307;49.628;-1.624;2023-02-03T13:24:42;2.63;;;1.00;;
73120;SDS011;61307;49.628;-1.624;2023-02-03T13:27:21;2.78;;;0.80;;
73120;SDS011;61307;49.628;-1.624;2023-02-03T13:30:10;5.55;;;0.73;;
73120;SDS011;61307;49.628;-1.624;2023-02-03T13:36:08;3.75;;;1.00;;
73120;SDS011;61307;49.628;-1.624;2023-02-03T13:41:46;4.65;;;1.10;;
73120;SDS011;61307;49.628;-1.624;2023-02-03T13:44:19;1.98;;;0.90;;
73120;SDS011;61307;49.628;-1.624;2023-02-03T13:46:52;1.58;;;0.80;;
73120;SDS011;61307;49.628;-1.624;2023-02-03T13:49:22;2.13;;;1.00;;
73120;SDS011;61307;49.628;-1.624;2023-02-03T13:51:52;0.80;;;0.65;;
73120;SDS011;61307;49.628;-1.624;2023-02-03T13:54:22;1.90;;;0.70;;
73120;SDS011;61307;49.628;-1.624;2023-02-03T13:56:54;2.25;;;0.80;;
73120;SDS011;61307;49.628;-1.624;2023-02-03T13:59:28;1.90;;;0.90;;
73120;SDS011;61307;49.628;-1.624;2023-02-03T14:20:45;2.53;;;1.00;;
73120;SDS011;61307;49.628;-1.624;2023-02-03T14:23:40;5.20;;;1.60;;
73120;SDS011;61307;49.628;-1.624;2023-02-03T14:26:17;5.38;;;2.65;;
73120;SDS011;61307;49.628;-1.624;2023-02-03T14:28:49;7.75;;;3.30;;
73120;SDS011;61307;49.628;-1.624;2023-02-03T14:31:18;18.58;;;11.85;;
73120;SDS011;61307;49.628;-1.624;2023-02-03T14:39:37;25.85;;;8.90;;
73120;SDS011;61307;49.628;-1.624;2023-02-03T14:42:26;14.93;;;9.05;;
73120;SDS011;61307;49.628;-1.624;2023-02-03T14:45:04;10.20;;;6.60;;
73120;SDS011;61307;49.628;-1.624;2023-02-03T14:47:44;9.30;;;6.10;;
73120;SDS011;61307;49.628;-1.624;2023-02-03T14:50:23;10.18;;;5.78;;
73120;SDS011;61307;49.628;-1.624;2023-02-03T14:53:03;15.88;;;8.93;;
73120;SDS011;61307;49.628;-1.624;2023-02-03T14:55:46;65.43;;;37.78;;
73120;SDS011;61307;49.628;-1.624;2023-02-03T14:58:23;46.83;;;26.23;;
73120;SDS011;61307;49.628;-1.624;2023-02-03T15:00:54;25.50;;;13.55;;
73120;SDS011;61307;49.628;-1.624;2023-02-03T15:03:22;25.08;;;13.90;;
73120;SDS011;61307;49.628;-1.624;2023-02-03T15:05:56;28.23;;;14.65;;
73120;SDS011;61307;49.628;-1.624;2023-02-03T15:08:32;25.33;;;12.27;;
73120;SDS011;61307;49.628;-1.624;2023-02-03T15:11:27;16.23;;;8.60;;
73120;SDS011;61307;49.628;-1.624;2023-02-03T15:13:56;18.67;;;9.50;;
73120;SDS011;61307;49.628;-1.624;2023-02-03T15:16:41;13.35;;;7.68;;
73120;SDS011;61307;49.628;-1.624;2023-02-03T15:19:14;12.13;;;6.20;;
73120;SDS011;61307;49.628;-1.624;2023-02-03T15:21:44;10.60;;;4.88;;
73120;SDS011;61307;49.628;-1.624;2023-02-03T15:24:12;10.15;;;5.63;;
73120;SDS011;61307;49.628;-1.624;2023-02-03T15:26:46;8.43;;;4.47;;
73120;SDS011;61307;49.628;-1.624;2023-02-03T15:29:18;9.90;;;4.03;;
73120;SDS011;61307;49.628;-1.624;2023-02-03T15:31:54;7.13;;;3.65;;
73120;SDS011;61307;49.628;-1.624;2023-02-03T15:34:27;7.03;;;3.70;;
73120;SDS011;61307;49.628;-1.624;2023-02-03T15:37:01;6.30;;;3.47;;
73120;SDS011;61307;49.628;-1.624;2023-02-03T15:39:36;7.22;;;3.58;;
73120;SDS011;61307;49.628;-1.624;2023-02-03T15:42:12;10.18;;;2.97;;
73120;SDS011;61307;49.628;-1.624;2023-02-03T15:44:45;6.57;;;2.90;;
73120;SDS011;61307;49.628;-1.624;2023-02-03T15:47:19;7.40;;;2.80;;
73120;SDS011;61307;49.628;-1.624;2023-02-03T15:49:55;6.47;;;2.80;;
73120;SDS011;61307;49.628;-1.624;2023-02-03T15:52:28;5.32;;;2.88;;
73120;SDS011;61307;49.628;-1.624;2023-02-03T15:55:01;5.25;;;2.65;;